Tiempo atmosférico en la estación meteorológica de Girona Aeropuerto, Girona (143 m.)



Fecha
DESCASC
Temp. máxima en grados centígrados (hora)
DESCASC
Temp. mínima en grados centígrados (hora)
DESCASC
Temp. media en grados centígrados
DESCASC
Racha de viento máxima en m/sg (hora)
DESCASC
Velocidad máxima media en intervalos de 10 minutos(hora)
DESCASC
Precipitaciones diarias en mm
DESCASC
Precipitaciones de 00:00 a 06:00 en mm
DESCASC
Precipitaciones de 06:00 a 12:00 en mm
DESCASC
Precipitaciones de 12:00 a 18:00 en mm
DESCASC
Precipitaciones de 18:00 a 24:00 en mm
DESCASC
26-11-2020 14.4 (15:50) 11.2 (02:10) 12.8 5.83 (07:10) 3.61 (14:50) 33.8 9.8 19.7 4.2 0.1
25-11-2020 16.9 (15:00) 4.3 (00:40) 10.6 8.89 (13:20) 5.28 (13:30) 1.4 0 0 0 1.4
24-11-2020 17 (14:50) -0.5 (06:50) 8.3 8.89 (15:30) 5.83 (15:20) 0 0 0 0 0
23-11-2020 17 (14:50) -0.6 (08:00) 8.2 5 (14:50) 3.61 (16:40) 0 0 0 0 0
22-11-2020 16.1 (14:40) -2 (-00:0) 7.1 5.83 (16:20) 4.72 (16:30) 0 0 0 0 0
21-11-2020 14.8 (14:10) -1.6 (-00:0) 6.6 7.22 (12:40) 5 (13:10) 0 0 0 0 0
20-11-2020 17 (15:30) 2.7 (00:00) 9.9 5.83 (13:00) 3.89 (13:00) 0 0 0 0 0
19-11-2020 22.4 (15:00) 5.8 (00:00) 14.1 6.11 (21:10) 3.89 (21:10) 0 0 0 0 0
18-11-2020 19.1 (13:50) 4.5 (00:00) 11.8 5.83 (12:10) 4.72 (16:00) 0 0 0 0 0
17-11-2020 21.5 (15:40) 5 (00:00) 13.3 5 (17:00) 3.33 (17:00) 0 0 0 0 0
16-11-2020 16.3 (15:30) 10.5 (00:00) 13.4 5 (11:20) 3.89 (11:20) 0 0 0 0 0
15-11-2020 23.1 (15:20) 8.2 (00:00) 15.7 16.94 (11:50) 7.5 (12:00) 0 0 0 0 0
14-11-2020 21.2 (14:00) 6.6 (00:00) 13.9 9.72 (16:20) 7.22 (15:10) 0 0 0 0 0
13-11-2020 19.5 (15:00) 4.8 (00:00) 12.2 6.67 (15:40) 5 (15:40) 0 0 0 0 0
12-11-2020 19.7 (13:50) 7.2 (00:00) 13.5 5 (15:50) 3.89 (15:50) 0 0 0 0 0
11-11-2020 21.2 (13:50) 4.9 (00:00) 13.1 10.83 (15:40) 8.33 (15:40) 0 0 0 0 0
10-11-2020 20.5 (14:40) 6.6 (00:00) 13.5 8.33 (14:50) 5.56 (15:30) 0 0 0 0 0
09-11-2020 21 (15:00) 5.9 (00:00) 13.5 8.33 (13:20) 5.83 (14:40) 0 0 0 0 0
08-11-2020 21.5 (14:20) 8 (00:00) 14.8 9.17 (14:40) 6.67 (14:30) 0 0 0 0 0
07-11-2020 18.6 (12:30) 11.5 (00:00) 15.1 15.28 (12:40) 11.67 (12:50) 10.9 0 1.2 9.7 0
06-11-2020 18.3 (14:40) 13.8 (00:00) 16 6.67 (10:50) 4.72 (13:00) 0 0 0 0 0
05-11-2020 17.9 (13:30) 6.1 (00:00) 12 7.78 (13:20) 5.28 (10:20) 0 0 0 0 0
04-11-2020 15.8 (13:20) 7.1 (00:00) 11.5 8.33 (15:30) 6.11 (15:40) 1.3 1.3 0 0 0
03-11-2020 20.8 (12:20) 11.7 (00:00) 16.2 8.89 (19:50) 5.56 (19:50) 0.2 0 0.2 0 0
02-11-2020 21.6 (14:30) 11.4 (00:00) 16.5 8.33 (09:00) 5.56 (08:20) 0 0 0 0 0
01-11-2020 22.3 (13:30) 9.2 (00:00) 15.7 5 (14:10) 3.33 (14:10) 0 0 0 0 0
31-10-2020 22.6 (13:50) 5 (00:00) 13.8 6.11 (14:30) 4.72 (15:10) 0 0 0 0 0
30-10-2020 25 (15:00) 6.5 (00:00) 15.8 4.72 (16:10) 3.89 (16:30) 0 0 0 0 0
29-10-2020 -- (--) -- (--) -- -- (--) -- (--) -- -- 0 0 0
28-10-2020 22.1 (14:40) 5.8 (00:00) 14 5.83 (15:00) 3.61 (15:50) 0 0 0 0 0

Gráficas

Temp. máximas Temp. mínimas Temp. medias Precipitaciones Rachas de viento máximas Velocidades máximas media en intervalos de 10 minutos

Datos horarios

Fecha y hora oficial Temperatura (ºC) Velocidad del viento (km/h) Dirección del viento Racha (km/h) Dirección de racha Precipitación (mm) Presión (hPa) Tendencia (hPa) Humedad (%)
2020-11-26 23:00:00 13 10 Norte 13 Norte 0 1002.3 -0.1 98
2020-11-26 22:00:00 13 9 Norte 13 Norte 0 1002.5 0.3 98
2020-11-26 21:00:00 12.9 9 Norte 11 Norte 0 1002.6 0.5 98
2020-11-26 20:00:00 13.1 7 Norte 11 Norte 0 1002.4 -- 98
2020-11-26 19:00:00 12.8 9 Norte 11 Norte 0.1 1002.2 -- 98
2020-11-26 18:00:00 12.5 6 Nordeste 11 Nordeste 0 1002.1 -- 98
2020-11-26 17:00:00 13.6 4 Nordeste 11 Norte 0 1002.1 -- 97
2020-11-26 16:00:00 14.4 7 Norte 17 Nordeste 0 1001.7 -- 97
2020-11-26 15:00:00 13.8 11 Norte 21 Nordeste 0 1001.5 -- 98
2020-11-26 14:00:00 13.4 11 Norte 15 Norte 2.1 1001.8 -- 98
2020-11-26 13:00:00 13.7 6 Nordeste 17 Norte 2.1 1002 -- 97
2020-11-26 12:00:00 13.5 6 Nordeste 17 Norte 0.8 1002.5 -- 97
2020-11-26 11:00:00 12.7 5 Norte 13 Noroeste 3.4 1002.7 -- 98
2020-11-26 10:00:00 12.7 3 Norte 21 Noroeste 9.2 1002.6 -- 98
2020-11-26 09:00:00 12.4 6 Noroeste 17 Noroeste 4.9 1002.1 -- 98
2020-11-26 08:00:00 12.2 9 Norte 21 Oeste 1.4 1002 -- 98
2020-11-26 07:00:00 11.8 8 Nordeste 15 Norte 0 1001.6 -- 98
2020-11-26 06:00:00 11.9 11 Norte 15 Norte 0.7 1001.5 -- 98
2020-11-26 05:00:00 11.5 4 Noroeste 15 Norte 2.8 1001.5 -- 98
2020-11-26 04:00:00 11.6 6 Nordeste 15 Sudeste 2.5 1001.8 -- 97
2020-11-26 03:00:00 11.4 3 Noroeste 13 Noroeste 2.1 1002.1 -- 97
2020-11-26 02:00:00 11.3 4 Oeste 8 Oeste 1.6 1002.1 -- 97
2020-11-26 01:00:00 11.8 2 Nordeste 9 Noroeste 0.1 1002.4 -- 97
2020-11-26 00:00:00 11.6 0 Calma 13 Sudoeste 1.4 1002.8 -- 96
2020-11-25 23:00:00 11.8 0 Calma 9 Sudoeste 0 1002.5 -- 94
2020-11-25 22:00:00 12 5 Oeste 9 Sudoeste 0 1002.3 -- 95
2020-11-25 21:00:00 12 7 Sudoeste 9 Sudoeste 0 1002 -- 94
2020-11-25 20:00:00 11.9 5 Sudoeste 9 Sudoeste 0 1001.8 -- 92
2020-11-25 19:00:00 11.9 8 Sur 13 Sudeste 0 1001.5 -- 91
2020-11-25 18:00:00 13.1 8 Sudeste 21 Sur 0 1001 -- 84
2020-11-25 17:00:00 15.1 15 Sur 24 Sudoeste 0 1000.8 -- 73
2020-11-25 16:00:00 16.2 15 Sudoeste 24 Sudoeste 0 1000.6 -- 68
2020-11-25 15:00:00 16.7 16 Sudoeste 26 Sur 0 1000.6 -- 69
2020-11-25 14:00:00 15.1 16 Sur 32 Sur 0 1001.1 -- 74
2020-11-25 13:00:00 15.4 8 Sur -- -- -- 1001.9 -- 74
2020-11-25 12:00:00 12 2 Sur 5 Sur 0 1002.5 -- 81
2020-11-25 11:00:00 9.7 0 Calma 5 Este 0 1003 -- 92
2020-11-25 10:00:00 8.5 0 Calma 8 Oeste 0 1003.1 -- 96
2020-11-25 09:00:00 6.8 0 Calma 11 Nordeste 0 1002.9 -- 97
2020-11-25 08:00:00 5.6 7 Oeste 9 Oeste 0 1002.6 -- 97
2020-11-25 07:00:00 6.1 2 Sur 9 Noroeste 0 1002.4 -- 97
2020-11-25 06:00:00 5.6 0 Calma 4 Norte 0 1002.3 -- 97
2020-11-25 05:00:00 5.4 0 Calma 9 Noroeste 0 1002.5 -- 97
2020-11-25 04:00:00 5 0 Calma 5 Nordeste 0 1002.7 -- 97
2020-11-25 03:00:00 5.6 0 Calma 4 Noroeste 0 1003 -- 97
2020-11-25 02:00:00 6 0 Calma 8 Norte 0 1003.3 -- 97
2020-11-25 01:00:00 4.8 0 Calma 5 Nordeste 0 1004.1 -- 97
2020-11-25 00:00:00 4.9 0 Calma 8 Nordeste 0 1004.5 -- 96
2020-11-24 23:00:00 6.2 0 Calma 11 Oeste 0 1004.5 -- 94
2020-11-24 22:00:00 7 3 Nordeste 13 Oeste 0 1004.6 -- 90
2020-11-24 21:00:00 9.3 4 Oeste 13 Sur 0 1004.7 -- 89
2020-11-24 20:00:00 10.3 13 Sur 18 Sur 0 1004.5 -- 89
2020-11-24 19:00:00 10.9 13 Sudoeste 22 Sudoeste 0 1004.3 -- 88
2020-11-24 18:00:00 12.3 17 Sur 24 Sur 0 1004 -- 83
2020-11-24 17:00:00 13.9 14 Sur 28 Sur 0 1003.9 -- 72
2020-11-24 16:00:00 16.3 20 Sur 32 Sudoeste 0 1004.1 -- 57
2020-11-24 15:00:00 16.8 19 Sur 28 Sudoeste 0 1004.5 -- 54
2020-11-24 14:00:00 16.5 12 Sur 18 Sur 0 1005.4 -- 56
2020-11-24 13:00:00 14.5 6 Sur 11 Sur 0 1006.6 -- 52
2020-11-24 12:00:00 12.6 3 Sudeste 9 Sur 0 1007.7 -- 64
2020-11-24 11:00:00 9.2 0 Calma 5 Este 0 1008.6 -- 79
2020-11-24 10:00:00 5.3 2 Sur 8 Sur 0 1008.9 -- 90
2020-11-24 09:00:00 1.6 0 Calma -- -- 0 1008.9 -- 100
2020-11-24 08:00:00 -0.1 0 Calma 4 Sur 0 1008.8 -- 100
2020-11-24 07:00:00 -0.3 4 Norte 5 Nordeste 0 1008.5 -- 100
2020-11-24 06:00:00 0.5 0 Calma 4 Nordeste 0 1008.5 -- 100
2020-11-24 05:00:00 0.9 0 Calma -- -- 0 1008.4 -- 100
2020-11-24 04:00:00 1 0 Calma 9 Norte 0 1008.7 -- 100
2020-11-24 03:00:00 1.2 5 Nordeste 8 Nordeste 0 1009.1 -- 99
2020-11-24 02:00:00 1.7 0 Calma 4 Norte 0 1009.5 -- 98
2020-11-24 01:00:00 3.1 0 Calma 8 Nordeste 0 1009.9 -- 98
2020-11-24 00:00:00 3.5 2 Nordeste 8 Oeste 0 1010.1 -- 97
2020-11-23 23:00:00 4.5 0 Calma 5 Sudoeste 0 1010.5 -- 97
2020-11-23 22:00:00 5.3 0 Calma 11 Nordeste 0 1010.7 -- 95
2020-11-23 21:00:00 6 7 Nordeste 9 Nordeste 0 1010.6 -- 92
2020-11-23 20:00:00 7.7 4 Oeste 8 Norte 0 1010.8 -- 95
2020-11-23 19:00:00 7.9 3 Norte 8 Nordeste 0 1010.6 -- 89
2020-11-23 18:00:00 11.5 0 Calma 11 Sur 0 1010.4 -- 81
2020-11-23 17:00:00 12.8 11 Sur 17 Sur 0 1010.3 -- 74
2020-11-23 16:00:00 15.8 12 Sur 15 Sur 0 1010.3 -- 62
2020-11-23 15:00:00 16.8 11 Sur 18 Sur 0 1010.3 -- 55
2020-11-23 14:00:00 16.4 6 Sur 13 Sudeste 0 1010.6 -- 48
2020-11-23 13:00:00 14.9 3 Sur 9 Sur 0 1011.2 -- 54
2020-11-23 12:00:00 -- -- -- 9 Sudoeste 0 -- -- --
2020-11-23 11:00:00 10.4 0 Calma 5 Sur 0 1012.9 -- 72
2020-11-23 10:00:00 7.1 0 Calma 4 Sudeste 0 1012.7 -- 84
2020-11-23 09:00:00 2.5 0 Calma 8 Oeste 0 1012.6 -- 96
2020-11-23 08:00:00 -0.3 7 Oeste 9 Oeste 0 1012.4 -- 98
2020-11-23 07:00:00 -0.3 3 Sur 8 Sudeste 0 1012.5 -- 98
2020-11-23 06:00:00 0.6 0 Calma 5 Sur 0 1012.3 -- 98
2020-11-23 05:00:00 1 0 Calma 9 Sur 0 1012.4 -- 98
2020-11-23 04:00:00 1 0 Calma 2 Nordeste 0 1012.5 -- 97
2020-11-23 03:00:00 1.7 0 Calma -- -- 0 1012.5 -- 97
2020-11-23 02:00:00 2.5 0 Calma -- -- 0 1012.4 -- 98
2020-11-23 01:00:00 2.4 0 Calma 8 Norte 0 1012.6 -- 97
2020-11-23 00:00:00 2.9 0 Calma -- -- 0 1012.7 -- 97
2020-11-22 23:00:00 3.1 0 Calma 5 Oeste 0 1012.7 -- 95
2020-11-22 22:00:00 3.8 0 Calma 9 Norte 0 1012.7 -- 96
2020-11-22 21:00:00 4 0 Calma -- -- 0 1012.2 -- 91
2020-11-22 20:00:00 6.4 0 Calma 2 Oeste 0 1012.1 -- 89
2020-11-22 19:00:00 7.2 0 Calma 5 Sudoeste 0 1011.5 -- 83
2020-11-22 18:00:00 10 4 Sudoeste 15 Sur 0 1011.3 -- 73
2020-11-22 17:00:00 12.2 12 Sur 21 Sur 0 1010.9 -- 63
2020-11-22 16:00:00 15 14 Sur 18 Sur 0 1010.6 -- 55
2020-11-22 15:00:00 15.9 9 Sur 18 Sur 0 1010.5 -- 48
2020-11-22 14:00:00 15.7 10 Sur 17 Sur 0 1011.2 -- 45
2020-11-22 13:00:00 14.4 8 Sudeste 15 Sur 0 1011.9 -- 53
2020-11-22 12:00:00 12.7 4 Sur 8 Sur 0 1012.5 -- 53
2020-11-22 11:00:00 8.9 3 Sur 9 Sur 0 1013.2 -- 65
2020-11-22 10:00:00 5.8 3 Sudeste 5 Sudeste 0 1013.3 -- 73
2020-11-22 09:00:00 2.5 0 Calma 4 Este 0 1013.5 -- 87
2020-11-22 08:00:00 -1.1 0 Calma 5 Este 0 1013.2 -- 95
2020-11-22 07:00:00 -1.3 0 Calma 5 Oeste 0 1013.1 -- 94
2020-11-22 06:00:00 -0.7 0 Calma 5 Norte 0 1013 -- 93
2020-11-22 05:00:00 -1.4 0 Calma 8 Nordeste 0 1012.7 -- 94
2020-11-22 04:00:00 -0.7 2 Sur 5 Sur 0 1012.8 -- 90
2020-11-22 03:00:00 -0.2 2 Oeste 9 Norte 0 1013.2 -- 91
2020-11-22 02:00:00 -0.2 0 Calma 8 Nordeste 0 1013.7 -- 91
2020-11-22 01:00:00 0.6 0 Calma 5 Oeste 0 1013.7 -- 90
2020-11-22 00:00:00 -0.2 0 Calma 4 Sudeste 0 1014 -- 87
2020-11-21 23:00:00 0.4 0 Calma 8 Nordeste 0 1013.9 -- 87
2020-11-21 22:00:00 2.5 0 Calma 5 Este 0 1013.9 -- 80
2020-11-21 21:00:00 4 2 Noroeste 5 Noroeste 0 1013.6 -- 73
2020-11-21 20:00:00 5.3 3 Noroeste 9 Norte 0 1013.6 -- 68
2020-11-21 19:00:00 8.1 5 Oeste 8 Oeste 0 1013.5 -- 59
2020-11-21 18:00:00 8.6 6 Este 11 Este 0 1013.1 -- 55
2020-11-21 17:00:00 11.5 5 Este 15 Nordeste 0 1013 -- 46
2020-11-21 16:00:00 14.1 11 Nordeste 18 Nordeste 0 1013 -- 35
2020-11-21 15:00:00 14.5 12 Nordeste 22 Nordeste 0 1013.3 -- 32
2020-11-21 14:00:00 14.5 11 Nordeste 24 Norte 0 1013.2 -- 34
2020-11-21 13:00:00 13.9 11 Norte 26 Nordeste 0 1013.8 -- 34
2020-11-21 12:00:00 12.9 14 Norte 22 Norte 0 1014.4 -- 38
2020-11-21 11:00:00 11.4 5 Norte 13 Norte 0 1014.6 -- 53
2020-11-21 10:00:00 7.9 4 Sudoeste 9 Noroeste 0 1014 -- 75
2020-11-21 09:00:00 2 2 Este 13 Noroeste 0 1013.8 -- 90
2020-11-21 08:00:00 -0.9 0 Calma 11 Norte 0 1013.1 -- 96
2020-11-21 07:00:00 -1.5 7 Norte 11 Nordeste 0 1012.4 -- 96
2020-11-21 06:00:00 -0.5 0 Calma 9 Sudeste 0 1011.9 -- 95
2020-11-21 05:00:00 0.4 5 Nordeste 11 Oeste 0 1011.7 -- 93
2020-11-21 04:00:00 0.3 7 Oeste 11 Oeste 0 1011.6 -- 94
2020-11-21 03:00:00 0.8 0 Calma 9 Este 0 1011.3 -- 93
2020-11-21 02:00:00 1.6 0 Calma 11 Sudeste 0 1011.1 -- 91
2020-11-21 01:00:00 2.8 5 Sudoeste 13 Noroeste 0 1011.2 -- 87
2020-11-21 00:00:00 2.8 2 Norte 13 Norte 0 1011.6 -- 86
2020-11-20 23:00:00 4.6 5 Este 11 Noroeste 0 1011.7 -- 76
2020-11-20 22:00:00 4.7 0 Calma 15 Este 0 1011.5 -- 77
2020-11-20 21:00:00 5.9 0 Calma 21 Norte 0 1011.2 -- 73
2020-11-20 20:00:00 7 8 Oeste 11 Oeste 0 1010.6 -- 73
2020-11-20 19:00:00 9.6 3 Sudoeste 15 Sur 0 1010.1 -- 54
2020-11-20 18:00:00 10.9 9 Sudeste 15 Sudeste 0 1009.3 -- 69
2020-11-20 17:00:00 13.6 10 Sudoeste 18 Sur 0 1008.7 -- 60
2020-11-20 16:00:00 15.8 13 Sudoeste 21 Sur 0 1008.5 -- 52
2020-11-20 15:00:00 16.2 4 Noroeste 15 Oeste 0 1008.9 -- 31
2020-11-20 14:00:00 16.4 9 Oeste 15 Oeste 0 1009.6 -- 33
2020-11-20 13:00:00 15.4 14 Sur 21 Sudoeste 0 1010.4 -- 51
2020-11-20 12:00:00 13.8 7 Norte 13 Norte 0 1011.1 -- 50
2020-11-20 11:00:00 11.8 3 Norte 15 Oeste 0 1012.2 -- 71
2020-11-20 10:00:00 10.9 3 Noroeste 13 Oeste 0 1012 -- 68
2020-11-20 09:00:00 8.3 9 Oeste 17 Oeste 0 1011.8 -- 80
2020-11-20 08:00:00 4 0 Calma 11 Norte 0 1012 -- 92
2020-11-20 07:00:00 4.7 6 Nordeste 8 Nordeste 0 1011.5 -- 85
2020-11-20 06:00:00 6.8 4 Nordeste 13 Norte 0 1011.2 -- 81
2020-11-20 05:00:00 7.3 9 Norte 13 Norte 0 1011.5 -- 80
2020-11-20 04:00:00 8.7 8 Norte 13 Norte 0 1011.8 -- 78
2020-11-20 03:00:00 9.7 9 Norte 13 Norte 0 1012.1 -- 78
2020-11-20 02:00:00 7.9 6 Norte 9 Norte 0 1012.2 -- 90
2020-11-20 01:00:00 8.1 0 Calma 8 Oeste 0 1012.2 -- 85
2020-11-20 00:00:00 9.3 0 Calma 13 Norte 0 1012.8 -- 80
2020-11-19 23:00:00 9.4 8 Noroeste 11 Noroeste 0 1013.1 -- 76
2020-11-19 22:00:00 9.7 9 Nordeste 22 Nordeste 0 1013.1 -- 76
2020-11-19 21:00:00 10.4 13 Nordeste 17 Nordeste 0 1012.8 -- 78
2020-11-19 20:00:00 11.4 7 Nordeste 18 Nordeste 0 1012.4 -- 78
2020-11-19 19:00:00 13.4 8 Nordeste 11 Nordeste 0 1012 -- 78
2020-11-19 18:00:00 16.5 7 Este 15 Este 0 1011.8 -- 69
2020-11-19 17:00:00 18.9 8 Sur 13 Sur 0 1010.9 -- 61
2020-11-19 16:00:00 21.6 9 Sur 15 Sur 0 1010.8 -- 49
2020-11-19 15:00:00 22.3 6 Sur 13 Sur 0 1010.8 -- 49
2020-11-19 14:00:00 21.6 3 Sur 9 Sur 0 1011.1 -- 51
2020-11-19 13:00:00 19.4 7 Norte 11 Norte 0 1012.1 -- 62
2020-11-19 12:00:00 17.5 0 Calma 8 Sur 0 1012.6 -- 69
2020-11-19 11:00:00 14.2 2 Sur 9 Sudoeste 0 1013.1 -- 81
2020-11-19 10:00:00 11.2 3 Sur 5 Sur 0 1013 -- 98
2020-11-19 09:00:00 7.1 0 Calma 8 Sudoeste 0 1013.3 -- 99
2020-11-19 08:00:00 5.9 0 Calma 8 Sudoeste 0 1012.7 -- 99
2020-11-19 07:00:00 7.2 3 Oeste 5 Oeste 0 1012.4 -- 99
2020-11-19 06:00:00 8.6 0 Calma 5 Nordeste 0 1012.4 -- 99
2020-11-19 05:00:00 9.4 4 Nordeste 5 Nordeste 0 1012.1 -- 99
2020-11-19 04:00:00 9.7 0 Calma 5 Norte 0 1012.1 -- 99
2020-11-19 03:00:00 10.1 0 Calma 5 Norte 0 1012.2 -- 98
2020-11-19 02:00:00 11.8 0 Calma 4 Oeste 0 1012.3 -- 99
2020-11-19 01:00:00 12 3 Norte 8 Norte 0 1012.5 -- 98
2020-11-19 00:00:00 11.9 3 Norte 8 Norte 0 1012.4 -- 97
2020-11-18 23:00:00 11.4 0 Calma 2 Nordeste 0 1012.3 -- 97
2020-11-18 22:00:00 10.8 2 Nordeste 5 Nordeste 0 1012.4 -- 98
2020-11-18 21:00:00 9.8 0 Calma -- -- 0 1012 -- 95
2020-11-18 20:00:00 11.4 0 Calma -- -- 0 1011.9 -- 93
2020-11-18 19:00:00 13.1 4 Sudoeste -- -- 0 1011.5 -- 93
2020-11-18 18:00:00 13.5 9 Sur 11 Sur 0 1011.2 -- 90
2020-11-18 17:00:00 16 7 Sur 21 Sur 0 1010.8 -- 79
2020-11-18 16:00:00 17.2 17 Sur 21 Sur 0 1010.6 -- 73
2020-11-18 15:00:00 18.9 12 Sur 18 Sur 0 1010.6 -- 66
2020-11-18 14:00:00 18.9 12 Sur 21 Sur 0 1010.8 -- 66
2020-11-18 13:00:00 18.2 12 Sur 21 Sur 0 1011.2 -- 70
2020-11-18 12:00:00 17 5 Sur 11 Sur 0 1012 -- 70
2020-11-18 11:00:00 14.7 4 Sur 8 Sur 0 1012.5 -- 73
2020-11-18 10:00:00 12.2 4 Este 8 Este 0 1012.4 -- 82
2020-11-18 09:00:00 7.8 0 Calma 4 Noroeste 0 1012.1 -- 93
2020-11-18 08:00:00 4.7 0 Calma 4 Noroeste 0 1011.6 -- 96
2020-11-18 07:00:00 4.9 2 Noroeste 5 Este 0 1011.2 -- 95
2020-11-18 06:00:00 5.5 0 Calma -- -- 0 1011.2 -- 94
2020-11-18 05:00:00 6.7 0 Calma 8 Oeste 0 1011 -- 93
2020-11-18 04:00:00 8 0 Calma 2 Sur 0 1011.1 -- 93
2020-11-18 03:00:00 7.4 0 Calma 8 Nordeste 0 1011.3 -- 95
2020-11-18 02:00:00 6.4 0 Calma 5 Sudoeste 0 1011.5 -- 93
2020-11-18 01:00:00 6.8 3 Nordeste 11 Este 0 1011.7 -- 89
2020-11-18 00:00:00 7.3 3 Oeste 4 Sudoeste 0 1011.8 -- 91
2020-11-17 23:00:00 7.6 0 Calma 5 Nordeste 0 1011.7 -- 87
2020-11-17 22:00:00 8.9 2 Este 5 Este 0 1011.6 -- 85
2020-11-17 21:00:00 10.3 0 Calma 9 Oeste 0 1011.3 -- 80
2020-11-17 20:00:00 11.3 7 Oeste 8 Oeste 0 1011.4 -- 77
2020-11-17 19:00:00 12.8 0 Calma 9 Sudeste 0 1011.3 -- 71
2020-11-17 18:00:00 14.4 6 Este 17 Sudeste 0 1010.5 -- 67
2020-11-17 17:00:00 17.7 12 Sudeste 18 Sudeste 0 1009.9 -- 58
2020-11-17 16:00:00 20.9 3 Sur 11 Sur 0 1009.4 -- 35
2020-11-17 15:00:00 20.8 4 Este 9 Este 0 1009.7 -- 35
2020-11-17 14:00:00 20 0 Calma 9 Nordeste 0 1009.9 -- 37
2020-11-17 13:00:00 19.1 4 Sudeste 9 Sudeste 0 1010.4 -- 44
2020-11-17 12:00:00 17.6 3 Sur 9 Sur 0 1011.3 -- 64
2020-11-17 11:00:00 15.2 0 Calma 8 Sudoeste 0 1011.6 -- 74
2020-11-17 10:00:00 12.2 3 Nordeste 9 Sudeste 0 1011.4 -- 82
2020-11-17 09:00:00 8.3 2 Nordeste 8 Este 0 1010.7 -- 95
2020-11-17 08:00:00 5.1 0 Calma 8 Oeste 0 1010 -- 97
2020-11-17 07:00:00 5.2 0 Calma 5 Este 0 1009.5 -- 97
2020-11-17 06:00:00 5.5 4 Nordeste 9 Este 0 1009.3 -- 96
2020-11-17 05:00:00 6.9 2 Oeste 11 Oeste 0 1009 -- 94
2020-11-17 04:00:00 8 2 Oeste 11 Oeste 0 1009.1 -- 93
2020-11-17 03:00:00 7.3 7 Norte 9 Norte 0 1009.2 -- 94
2020-11-17 02:00:00 7.7 5 Nordeste 11 Norte 0 1009.3 -- 91
2020-11-17 01:00:00 8.6 0 Calma 9 Nordeste 0 1009.3 -- 89
2020-11-17 00:00:00 11 8 Norte 15 Este 0 1009.6 -- 82
2020-11-16 23:00:00 11.3 5 Oeste 8 Oeste 0 1009.7 -- 83
2020-11-16 22:00:00 12 0 Calma 8 Sudoeste 0 1009.5 -- 74
2020-11-16 21:00:00 12.6 9 Norte 15 Nordeste 0 1008.8 -- 72
2020-11-16 20:00:00 13.2 7 Nordeste 13 Nordeste 0 1008.5 -- 71
2020-11-16 19:00:00 14.2 4 Nordeste 8 Norte 0 1007.9 -- 79
2020-11-16 18:00:00 14.8 0 Calma 9 Oeste 0 1007.5 -- 76
2020-11-16 17:00:00 15.1 5 Oeste 9 Oeste 0 1007.3 -- 72
2020-11-16 16:00:00 15.8 4 Oeste 9 Noroeste 0 1006.6 -- 67
2020-11-16 15:00:00 15.5 3 Noroeste 17 Norte 0 1006.3 -- 67
2020-11-16 14:00:00 15.3 6 Norte 9 Norte 0 1006 -- 68
2020-11-16 13:00:00 15 6 Norte 15 Norte 0 1006.2 -- 69
2020-11-16 12:00:00 14.8 11 Nordeste 18 Nordeste 0 1006.1 -- 70
2020-11-16 11:00:00 14.1 10 Nordeste 17 Nordeste 0 1006.2 -- 74
2020-11-16 10:00:00 13.6 11 Norte 17 Nordeste 0 1005.8 -- 75
2020-11-16 09:00:00 12.7 6 Norte 13 Norte 0 1005.3 -- 82
2020-11-16 08:00:00 12 5 Nordeste 17 Nordeste 0 1004.2 -- 90
2020-11-16 07:00:00 10.6 8 Norte 11 Norte 0 1003.3 -- 96
2020-11-16 06:00:00 11.7 7 Este 11 Este 0 1002.6 -- 90
2020-11-16 05:00:00 11.9 8 Oeste 13 Oeste 0 1002 -- 93
2020-11-16 04:00:00 11.3 6 Oeste 11 Oeste 0 1002.3 -- 93
2020-11-16 03:00:00 12.2 6 Noroeste 11 Norte 0 1002 -- 93
2020-11-16 02:00:00 12 5 Norte 15 Norte 0 1002.1 -- 94
2020-11-16 01:00:00 11.6 9 Norte 11 Norte 0 1001.9 -- 95
2020-11-16 00:00:00 11.8 6 Oeste 13 Sudoeste 0 1001 -- 92
2020-11-15 23:00:00 12.6 4 Nordeste 5 Este 0 1001.3 -- 90
2020-11-15 22:00:00 13.8 2 Este 15 Norte 0 1001.5 -- 87
2020-11-15 21:00:00 14.2 10 Nordeste 15 Nordeste 0 1000.7 -- 89
2020-11-15 20:00:00 15.1 9 Nordeste 15 Norte 0 1000.7 -- 78
2020-11-15 19:00:00 17.2 10 Norte 13 Norte 0 1000.3 -- 70
2020-11-15 18:00:00 19.1 12 Noroeste 22 Noroeste 0 999.7 -- 58
2020-11-15 17:00:00 19.6 0 Calma 18 Sur 0 999.3 -- 68
2020-11-15 16:00:00 21.1 14 Sudeste 21 Sudeste 0 999.4 -- 63
2020-11-15 15:00:00 22.9 13 Sur 26 Sudoeste 0 998.8 -- 52
2020-11-15 14:00:00 22.2 19 Sudoeste 35 Sudoeste 0 999.2 -- 54
2020-11-15 13:00:00 21.1 18 Sudoeste 35 Sudoeste 0 999.6 -- 57
2020-11-15 12:00:00 19.2 27 Sudoeste 61 Sur 0 1000.3 -- 62
2020-11-15 11:00:00 18.6 21 Sur 35 Sur 0 1001 -- 67
2020-11-15 10:00:00 15.6 11 Sur 21 Sudoeste 0 1001.6 -- 84
2020-11-15 09:00:00 11.9 4 Sudoeste 11 Oeste 0 1002 -- 97
2020-11-15 08:00:00 8.8 4 Oeste 9 Sudoeste 0 1001.8 -- 98
2020-11-15 07:00:00 9.7 5 Sudoeste 9 Sudoeste 0 1001.5 -- 98
2020-11-15 06:00:00 10 0 Calma 13 Sudoeste 0 1001.6 -- 98
2020-11-15 05:00:00 10.5 3 Nordeste 5 Nordeste 0 1001.6 -- 99
2020-11-15 04:00:00 10.7 3 Oeste 4 Sudoeste 0 1001.9 -- 98
2020-11-15 03:00:00 10.2 2 Nordeste 5 Oeste 0 1002.4 -- 97
2020-11-15 02:00:00 11.7 4 Oeste 9 Sudoeste 0 1002.9 -- 98
2020-11-15 01:00:00 10.8 3 Sudoeste 5 Sudoeste 0 1003.3 -- 97
2020-11-15 00:00:00 11.2 4 Nordeste 5 Nordeste 0 1003.7 -- 97
2020-11-14 23:00:00 12.8 4 Sudoeste 9 Sur 0 1003.9 -- 97
2020-11-14 22:00:00 13.1 9 Sur 13 Sur 0 1003.9 -- 98
2020-11-14 21:00:00 13.4 9 Sur -- -- 0 1003.9 -- 97
2020-11-14 20:00:00 13.9 8 Sur 17 Sur 0 1003.9 -- 97
2020-11-14 19:00:00 13.8 10 Sur 15 Sur 0 1003.6 -- 95
2020-11-14 18:00:00 14.9 11 Sur 28 Sur 0 1003.2 -- 91
2020-11-14 17:00:00 17.2 21 Sur 35 Sur 0 1003 -- 78
2020-11-14 16:00:00 19.5 23 Sur 33 Sur 0 1003 -- 64
2020-11-14 15:00:00 20.6 26 Sur 32 Sur 0 1003.3 -- 60
2020-11-14 14:00:00 21.1 23 Sur 30 Sur 0 1003.6 -- 60
2020-11-14 13:00:00 20.6 17 Sur 26 Sur 0 1004.3 -- 64
2020-11-14 12:00:00 18.7 14 Sur 18 Sudoeste 0 1005.1 -- 74
2020-11-14 11:00:00 15.4 6 Sur 9 Sur 0 1005.6 -- 77
2020-11-14 10:00:00 13 3 Sur 5 Sudoeste 0 1005.7 -- 86
2020-11-14 09:00:00 9.8 0 Calma 5 Nordeste 0 1005.8 -- 98
2020-11-14 08:00:00 6.7 0 Calma 5 Noroeste 0 1005.4 -- 99
2020-11-14 07:00:00 6.9 0 Calma -- -- 0 1005.2 -- 99
2020-11-14 06:00:00 7.2 0 Calma 4 Oeste 0 1005.3 -- 98
2020-11-14 05:00:00 7.4 0 Calma 5 Sudeste 0 1005 -- 98
2020-11-14 04:00:00 8 0 Calma 4 Oeste 0 1005.2 -- 98
2020-11-14 03:00:00 8.7 0 Calma 5 Norte 0 1005.6 -- 98
2020-11-14 02:00:00 9.2 3 Norte 8 Norte 0 1005.8 -- 97
2020-11-14 01:00:00 9.4 0 Calma 8 Noroeste 0 1006.3 -- 94
2020-11-14 00:00:00 10.9 0 Calma 5 Norte 0 1006.5 -- 94
2020-11-13 23:00:00 12.2 0 Calma 9 Oeste 0 1006.6 -- 96
2020-11-13 22:00:00 13.8 6 Oeste 11 Sudoeste 0 1006.5 -- 98
2020-11-13 21:00:00 13.7 7 Oeste 11 Oeste 0 1006.4 -- 96
2020-11-13 20:00:00 13.9 0 Calma 5 Sur 0 1006.1 -- 95
2020-11-13 19:00:00 14.2 5 Sur 11 Sudoeste 0 1005.9 -- 93
2020-11-13 18:00:00 15.3 8 Sudoeste 13 Sur 0 1005.3 -- 86
2020-11-13 17:00:00 16.5 10 Sur 21 Sur 0 1004.8 -- 78
2020-11-13 16:00:00 18.7 16 Sur 24 Sur 0 1004.7 -- 69
2020-11-13 15:00:00 19.5 13 Sur 18 Sur 0 1004.6 -- 60
2020-11-13 14:00:00 18.6 10 Sur 17 Sudoeste 0 1004.9 -- 65
2020-11-13 13:00:00 18.3 11 Sur 18 Sudoeste 0 1005.3 -- 67
2020-11-13 12:00:00 16.9 5 Sur 9 Sur 0 1005.9 -- 73
2020-11-13 11:00:00 14.5 5 Sur 8 Sur 0 1006.3 -- 80
2020-11-13 10:00:00 11.2 0 Calma 5 Oeste 0 1006.3 -- 96
2020-11-13 09:00:00 7.4 0 Calma 5 Oeste 0 1006.1 -- 99
2020-11-13 08:00:00 4.9 4 Oeste 8 Oeste 0 1005.6 -- 99
2020-11-13 07:00:00 5.7 0 Calma 2 Noroeste 0 1005.1 -- 99
2020-11-13 06:00:00 5.7 0 Calma 5 Nordeste 0 1005.2 -- 98
2020-11-13 05:00:00 5.8 0 Calma 4 Norte 0 1005.1 -- 98
2020-11-13 04:00:00 6.2 0 Calma 5 Nordeste 0 1005.3 -- 98
2020-11-13 03:00:00 6.4 0 Calma -- -- 0 1005.6 -- 97
2020-11-13 02:00:00 7.6 0 Calma 4 Oeste 0 1006 -- 97
2020-11-13 01:00:00 9.7 3 Oeste 5 Oeste 0 1006.5 -- 98
2020-11-13 00:00:00 10 4 Sur 8 Oeste 0 1006.6 -- 97
2020-11-12 23:00:00 10.5 3 Oeste 9 Sur 0 1006.8 -- 96
2020-11-12 22:00:00 10.8 0 Calma 4 Oeste 0 1006.8 -- 96
2020-11-12 21:00:00 10.4 0 Calma 4 Oeste 0 1006.6 -- 95
2020-11-12 20:00:00 11.3 0 Calma 5 Sudeste 0 1006.6 -- 94
2020-11-12 19:00:00 12.7 5 Sudeste 9 Sudeste 0 1006.6 -- 92
2020-11-12 18:00:00 13.7 6 Sudeste 13 Sudeste 0 1006.2 -- 89
2020-11-12 17:00:00 15.9 8 Sudeste 17 Sur 0 1006.1 -- 80
2020-11-12 16:00:00 17.8 13 Sur 18 Sur 0 1006 -- 71
2020-11-12 15:00:00 19.4 7 Sudeste 15 Sur 0 1006 -- 53
2020-11-12 14:00:00 19.6 7 Sur 11 Sur 0 1006.4 -- 54
2020-11-12 13:00:00 19.1 5 Sur 15 Sudeste 0 1006.9 -- 60
2020-11-12 12:00:00 17.1 4 Nordeste 8 Este 0 1007.7 -- 68
2020-11-12 11:00:00 15.4 0 Calma 5 Nordeste 0 1008 -- 79
2020-11-12 10:00:00 11.8 0 Calma 5 Sudoeste 0 1007.9 -- 93
2020-11-12 09:00:00 9.1 0 Calma 5 Sudoeste 0 1007.7 -- 97
2020-11-12 08:00:00 7.7 0 Calma 4 Sur 0 1007.2 -- 95
2020-11-12 07:00:00 8.1 0 Calma 8 Nordeste 0 1006.6 -- 96
2020-11-12 06:00:00 8.1 3 Norte 13 Norte 0 1006.1 -- 96
2020-11-12 05:00:00 8.4 12 Norte 13 Norte 0 1005.9 -- 98
2020-11-12 04:00:00 7.4 3 Nordeste 8 Nordeste 0 1005.9 -- 94
2020-11-12 03:00:00 8.1 2 Este 8 Sudoeste 0 1006.1 -- 93
2020-11-12 02:00:00 10.9 9 Sur 17 Sur 0 1006.3 -- 88
2020-11-12 01:00:00 9 2 Oeste 9 Oeste 0 1006.4 -- 92
2020-11-12 00:00:00 9.3 8 Sudoeste 11 Sur 0 1006.4 -- 91
2020-11-11 23:00:00 10.9 10 Sudoeste 13 Sudoeste 0 1006.6 -- 89
2020-11-11 22:00:00 11.7 5 Oeste 9 Oeste 0 1006.6 -- 87
2020-11-11 21:00:00 13.1 10 Sudoeste 24 Sur 0 1006.3 -- 83
2020-11-11 20:00:00 13.1 15 Sudoeste 22 Sur 0 1006.2 -- 82
2020-11-11 19:00:00 13.6 14 Sudoeste 24 Sur 0 1005.8 -- 82
2020-11-11 18:00:00 15.1 20 Sur 30 Sur 0 1005.3 -- 78
2020-11-11 17:00:00 17.9 22 Sur 37 Sur 0 1005.3 -- 66
2020-11-11 16:00:00 19.5 28 Sur 39 Sudoeste 0 1005.3 -- 54
2020-11-11 15:00:00 20.6 23 Sur 33 Sudoeste 0 1005.4 -- 52
2020-11-11 14:00:00 21.1 17 Sudoeste 26 Sudoeste 0 1005.9 -- 49
2020-11-11 13:00:00 19.8 12 Sudoeste 18 Sudoeste 0 1007 -- 57
2020-11-11 12:00:00 17.7 2 Sudoeste 9 Sur 0 1008.2 -- 68
2020-11-11 11:00:00 15.4 3 Sur 8 Sur 0 1008.9 -- 77
2020-11-11 10:00:00 11.9 5 Sur 8 Sudoeste 0 1009.3 -- 91
2020-11-11 09:00:00 8.1 4 Sudoeste 5 Sur 0 1009.7 -- 98
2020-11-11 08:00:00 5.2 4 Oeste 5 Oeste 0 1009.6 -- 99
2020-11-11 07:00:00 5.9 0 Calma 5 Sudoeste 0 1009.5 -- 99
2020-11-11 06:00:00 6 0 Calma 2 Norte 0 1009.5 -- 99
2020-11-11 05:00:00 6.5 0 Calma -- -- 0 1009.7 -- 99
2020-11-11 04:00:00 6.5 0 Calma 4 Noroeste 0 1009.8 -- 98
2020-11-11 03:00:00 7.1 0 Calma 4 Nordeste 0 1010.3 -- 98
2020-11-11 02:00:00 7.8 0 Calma 4 Nordeste 0 1010.7 -- 98
2020-11-11 01:00:00 7.8 4 Nordeste 5 Nordeste 0 1010.6 -- 97
2020-11-11 00:00:00 9.1 0 Calma 4 Oeste 0 1010.8 -- 97
2020-11-10 23:00:00 9.1 0 Calma 9 Nordeste 0 1010.8 -- 95
2020-11-10 22:00:00 10 5 Oeste 9 Oeste 0 1010.8 -- 96
2020-11-10 21:00:00 10.9 0 Calma 5 Nordeste 0 1010.3 -- 95
2020-11-10 20:00:00 12.4 0 Calma 8 Sudoeste 0 1010.2 -- 90
2020-11-10 19:00:00 13.7 4 Sudoeste 9 Sudoeste 0 1010.2 -- 89
2020-11-10 18:00:00 15.4 6 Sudoeste 15 Sur 0 1009.8 -- 82
2020-11-10 17:00:00 16.5 14 Sur 18 Sur 0 1009.2 -- 78
2020-11-10 16:00:00 18.2 12 Nordeste 28 Nordeste 0 1008.9 -- 62
2020-11-10 15:00:00 20.3 18 Nordeste 30 Nordeste 0 1008.4 -- 52
2020-11-10 14:00:00 19.9 18 Nordeste 26 Nordeste 0 1008.6 -- 59
2020-11-10 13:00:00 19.5 12 Nordeste 21 Norte 0 1009.1 -- 61
2020-11-10 12:00:00 18.5 12 Nordeste 17 Nordeste 0 1009.6 -- 65
2020-11-10 11:00:00 17.8 6 Este 11 Este 0 1009.7 -- 68
2020-11-10 10:00:00 15.3 0 Calma 8 Sur 0 1009.7 -- 84
2020-11-10 09:00:00 10.3 3 Norte 11 Norte 0 1009.3 -- 96
2020-11-10 08:00:00 7.5 0 Calma 2 Noroeste 0 1008.6 -- 98
2020-11-10 07:00:00 6.8 3 Norte 9 Noroeste 0 1008.1 -- 98
2020-11-10 06:00:00 6.8 5 Nordeste 8 Nordeste 0 1007.8 -- 97
2020-11-10 05:00:00 7.5 0 Calma 8 Norte 0 1007.3 -- 98
2020-11-10 04:00:00 8 5 Nordeste 8 Nordeste 0 1007.3 -- 98
2020-11-10 03:00:00 8.4 0 Calma 8 Nordeste 0 1007.4 -- 97
2020-11-10 02:00:00 9.4 4 Norte 5 Nordeste 0 1007.3 -- 97
2020-11-10 01:00:00 9.3 0 Calma 9 Noroeste 0 1007.4 -- 94
2020-11-10 00:00:00 10.1 4 Norte 9 Noroeste 0 1007.4 -- 94
2020-11-09 23:00:00 12.1 8 Noroeste 11 Noroeste 0 1007.4 -- 93
2020-11-09 22:00:00 12.3 7 Norte 13 Norte 0 1007.3 -- 96
2020-11-09 21:00:00 11.3 10 Norte 15 Norte 0 1006.8 -- 96
2020-11-09 20:00:00 11.5 8 Norte -- -- 0 1006.4 -- 93
2020-11-09 19:00:00 13.4 0 Calma 13 Sur 0 1005.9 -- 85
2020-11-09 18:00:00 15.4 9 Sur 18 Sur 0 1005.1 -- 80
2020-11-09 17:00:00 17.7 13 Sur 22 Sur 0 1004.7 -- 67
2020-11-09 16:00:00 20.1 17 Sur 24 Sur 0 1004.4 -- 56
2020-11-09 15:00:00 20.9 18 Sur 28 Sur 0 1004.2 -- 55
2020-11-09 14:00:00 20.1 17 Sur 30 Sur 0 1004.3 -- 57
2020-11-09 13:00:00 20.1 18 Sur 24 Sudoeste 0 1004.8 -- 60
2020-11-09 12:00:00 17.9 11 Sur 15 Sur 0 1005.5 -- 66
2020-11-09 11:00:00 16.1 4 Sur 8 Sur 0 1005.9 -- 72
2020-11-09 10:00:00 12.6 0 Calma 5 Sur 0 1006.1 -- 87
2020-11-09 09:00:00 10.1 0 Calma 9 Noroeste 0 1006.1 -- 98
2020-11-09 08:00:00 6.2 0 Calma 5 Sudoeste 0 1005.4 -- 98
2020-11-09 07:00:00 6.7 0 Calma 5 Este 0 1005 -- 98
2020-11-09 06:00:00 7.2 0 Calma 8 Oeste 0 1004.9 -- 98
2020-11-09 05:00:00 8.3 4 Oeste 5 Oeste 0 1004.7 -- 98
2020-11-09 04:00:00 7.6 4 Sudoeste 5 Sudoeste 0 1004.7 -- 97
2020-11-09 03:00:00 7 0 Calma 8 Oeste 0 1005 -- 97
2020-11-09 02:00:00 7.5 4 Sudoeste 8 Sur 0 1005 -- 96
2020-11-09 01:00:00 8.6 0 Calma 5 Sudoeste 0 1005.2 -- 96
2020-11-09 00:00:00 10.4 0 Calma 5 Sur 0 1005.4 -- 96
2020-11-08 23:00:00 10.5 2 Sudeste 11 Sur 0 1005.3 -- 95
2020-11-08 22:00:00 11.7 0 Calma 5 Sudeste 0 1005.2 -- 94
2020-11-08 21:00:00 13.1 3 Sudoeste 11 Sudoeste 0 1005.2 -- 93
2020-11-08 20:00:00 14.1 8 Sudoeste 11 Sudoeste 0 1005.1 -- 91
2020-11-08 19:00:00 14.9 10 Sudoeste 21 Sur 0 1005 -- 89
2020-11-08 18:00:00 15.8 15 Sur 22 Sur 0 1004.7 -- 83
2020-11-08 17:00:00 18.7 15 Sur 32 Sudoeste 0 1004.7 -- 67
2020-11-08 16:00:00 20.4 19 Sur 30 Sudoeste 0 1004.7 -- 60
2020-11-08 15:00:00 19.8 19 Sudoeste 33 Sur 0 1004.9 -- 63
2020-11-08 14:00:00 21.3 18 Sur 26 Sur 0 1005.2 -- 57
2020-11-08 13:00:00 20.3 13 Sur 21 Sur 0 1006.1 -- 65
2020-11-08 12:00:00 18.7 7 Sur 11 Sur 0 1007 -- 70
2020-11-08 11:00:00 17.1 4 Sur 9 Sur 0 1007.4 -- 78
2020-11-08 10:00:00 14.2 5 Sur 8 Sur 0 1007.4 -- 90
2020-11-08 09:00:00 12 4 Oeste 11 Oeste 0 1007.3 -- 99
2020-11-08 08:00:00 9.6 6 Sudoeste 9 Oeste 0 1006.8 -- 99
2020-11-08 07:00:00 9.5 7 Oeste 9 Oeste 0 1006.3 -- 99
2020-11-08 06:00:00 8.9 3 Sudeste 8 Sur 0 1005.8 -- 98
2020-11-08 05:00:00 9.6 4 Oeste 9 Oeste 0 1005.8 -- 98
2020-11-08 04:00:00 10.7 9 Oeste 15 Oeste 0 1005.6 -- 98
2020-11-08 03:00:00 10 11 Oeste 13 Sudoeste 0 1005.8 -- 98
2020-11-08 02:00:00 10.6 4 Nordeste 13 Oeste 0 1005.9 -- 98
2020-11-08 01:00:00 11.2 10 Sudoeste 11 Sudoeste 0 1005.9 -- 98
2020-11-08 00:00:00 12.6 4 Oeste 13 Sudoeste 0 1006.2 -- 98
2020-11-07 23:00:00 13 5 Sudoeste 9 Sudoeste 0 1006.6 -- 97
2020-11-07 22:00:00 14.5 3 Sur 9 Oeste 0 1006.7 -- 98
2020-11-07 21:00:00 14.6 6 Oeste 11 Sudoeste 0 1006.1 -- 98
2020-11-07 20:00:00 14.7 7 Sudoeste 11 Sur 0 1005.6 -- 97
2020-11-07 19:00:00 15.5 11 Sur 18 Sur 0 1005.3 -- 96
2020-11-07 18:00:00 16.2 13 Sur 21 Sur 0 1004.4 -- 94
2020-11-07 17:00:00 17.6 16 Sur 24 Sur 0 1004.4 -- 90
2020-11-07 16:00:00 17 15 Sur 30 Sur 0 1004.1 -- 94
2020-11-07 15:00:00 16.9 21 Sur 33 Sur 0 1004.3 -- 94
2020-11-07 14:00:00 16.6 17 Sur 39 Sur 2 1004.4 -- 97
2020-11-07 13:00:00 16.8 30 Sur 55 Sur 7.7 1005 -- 95
2020-11-07 12:00:00 18.1 15 Sudeste 32 Sudeste 0.1 1004.8 -- 97
2020-11-07 11:00:00 17.5 21 Sudeste 35 Sudeste 0.2 1005.6 -- 97
2020-11-07 10:00:00 16 10 Nordeste 22 Nordeste 0.9 1006.4 -- 98
2020-11-07 09:00:00 15.8 15 Norte 26 Norte 0 1007.1 -- 97
2020-11-07 08:00:00 15.7 16 Norte 26 Norte 0 1007.3 -- 96
2020-11-07 07:00:00 15.7 15 Norte 26 Norte 0 1007.7 -- 95
2020-11-07 06:00:00 15.7 11 Norte 22 Norte 0 1008 -- 96
2020-11-07 05:00:00 15.5 16 Norte 24 Nordeste 0 1007.9 -- 97
2020-11-07 04:00:00 15.4 14 Norte 21 Norte 0 1008.1 -- 96
2020-11-07 03:00:00 15.6 12 Norte 17 Norte 0 1008.5 -- 95
2020-11-07 02:00:00 15.7 10 Norte 17 Norte 0 1008.8 -- 95
2020-11-07 01:00:00 15.8 11 Norte 17 Norte 0 1008.8 -- 96
2020-11-07 00:00:00 16 10 Norte 13 Norte 0 1009.2 -- 95
2020-11-06 23:00:00 16.2 9 Norte 13 Norte 0 1009.3 -- 95
2020-11-06 22:00:00 16.2 8 Norte 11 Norte 0 1009.3 -- 94
2020-11-06 21:00:00 16.1 6 Norte 13 Norte 0 1009.2 -- 94
2020-11-06 20:00:00 16.3 9 Norte 15 Norte 0 1009.4 -- 92
2020-11-06 19:00:00 16.3 8 Norte 17 Norte 0 1009.5 -- 90
2020-11-06 18:00:00 16.7 13 Norte 17 Norte 0 1009.3 -- 87
2020-11-06 17:00:00 17.4 10 Nordeste 15 Nordeste 0 1009.5 -- 84
2020-11-06 16:00:00 17.9 12 Nordeste 17 Nordeste 0 1009.5 -- 79
2020-11-06 15:00:00 18.2 13 Norte 21 Nordeste 0 1009.7 -- 76
2020-11-06 14:00:00 17.7 14 Norte 22 Norte 0 1010.4 -- 79
2020-11-06 13:00:00 17.8 17 Nordeste 22 Nordeste 0 1010.8 -- 80
2020-11-06 12:00:00 16.8 15 Nordeste 22 Nordeste 0 1011.6 -- 84
2020-11-06 11:00:00 16.4 15 Norte 24 Norte 0 1012 0.5 85
2020-11-06 10:00:00 15.6 13 Norte 21 Norte 0 1012 -- 87
2020-11-06 09:00:00 14.8 10 Norte 15 Norte 0 1011.9 -- 91
2020-11-06 08:00:00 14 9 Norte 15 Norte 0 1011.5 -- 94
2020-11-06 07:00:00 14 11 Norte 15 Norte 0 1011.1 -- 93
2020-11-06 06:00:00 14.2 10 Norte 15 Nordeste 0 1011.3 -- 92
2020-11-06 05:00:00 14.6 14 Norte 21 Norte 0 1010.7 -- 90
2020-11-06 04:00:00 14.4 8 Norte 13 Norte 0 1011.3 -- 89
2020-11-06 03:00:00 14 9 Norte 18 Norte 0 1011.3 -- 88
2020-11-06 02:00:00 14.1 11 Norte 18 Norte 0 1010.9 -- 88
2020-11-06 01:00:00 13.8 7 Nordeste 11 Nordeste 0 1011.1 -- 89
2020-11-06 00:00:00 13.8 8 Nordeste 17 Norte 0 1011.3 -- 89
2020-11-05 23:00:00 14.5 13 Norte 21 Norte 0 1011.4 -- 86
2020-11-05 22:00:00 14.7 14 Norte 21 Norte 0 1011.7 -- 83
2020-11-05 21:00:00 14.6 11 Norte 18 Nordeste 0 1011.6 -- 82
2020-11-05 20:00:00 15.3 14 Norte 21 Norte 0 1011.6 -- 79
2020-11-05 19:00:00 15.4 10 Norte 18 Nordeste 0 1011.6 -- 79
2020-11-05 18:00:00 15.9 12 Nordeste 18 Nordeste 0 1011.2 -- 76
2020-11-05 17:00:00 16.4 14 Nordeste 21 Nordeste 0 1010.9 -- 73
2020-11-05 16:00:00 16.7 14 Norte 24 Norte 0 1010.8 -- 71
2020-11-05 15:00:00 17.4 16 Norte 24 Nordeste 0 1010.8 -- 68
2020-11-05 14:00:00 17.1 17 Norte 28 Nordeste 0 1011.2 -- 68
2020-11-05 13:00:00 17.5 15 Nordeste 24 Nordeste 0 1011.8 -- 64
2020-11-05 12:00:00 16.8 17 Nordeste 26 Nordeste 0 1012.5 -- 64
2020-11-05 11:00:00 14.7 16 Norte 26 Nordeste 0 1012.7 -- 68
2020-11-05 10:00:00 12.8 14 Nordeste 21 Nordeste 0 1012.4 -- 72
2020-11-05 09:00:00 11.5 15 Norte 22 Norte 0 1012.1 -- 75
2020-11-05 08:00:00 8.8 10 Norte 21 Norte 0 1011.7 -- 82
2020-11-05 07:00:00 8.6 11 Norte 15 Norte 0 1011.2 -- 80
2020-11-05 06:00:00 8.5 12 Nordeste 15 Nordeste 0 1011 -- 83
2020-11-05 05:00:00 8.3 2 Nordeste 9 Norte 0 1011.4 -- 85
2020-11-05 04:00:00 8.3 10 Norte 17 Norte 0 1010.8 -- 82
2020-11-05 03:00:00 6.4 10 Norte 15 Norte 0 1010.7 -- 87
2020-11-05 02:00:00 8.1 6 Norte 13 Norte 0 1010.7 -- 79
2020-11-05 01:00:00 7.8 9 Norte 13 Norte 0 1010.8 -- 85
2020-11-05 00:00:00 7.3 11 Norte 13 Norte 0 1010.5 -- 88
2020-11-04 23:00:00 8.1 8 Norte 13 Norte 0 1010.3 -- 80
2020-11-04 22:00:00 8.8 6 Norte 13 Norte 0 1010.1 -- 84
2020-11-04 21:00:00 9.3 9 Norte 22 Norte 0 1009.5 -- 79
2020-11-04 20:00:00 10.6 15 Norte 26 Norte 0 1008.9 -- 66
2020-11-04 19:00:00 11.1 11 Norte 26 Nordeste 0 1008.5 -- 67
2020-11-04 18:00:00 11.7 14 Nordeste 21 Nordeste 0 1007.2 -- 67
2020-11-04 17:00:00 13.7 14 Nordeste 28 Norte 0 1006.7 -- 62
2020-11-04 16:00:00 15.1 17 Nordeste 30 Nordeste 0 1006.4 -- 56
2020-11-04 15:00:00 15 18 Nordeste 24 Nordeste 0 1006.2 -- 61
2020-11-04 14:00:00 15.4 14 Nordeste 22 Norte 0 1006.5 -- 68
2020-11-04 13:00:00 14.7 9 Nordeste 15 Nordeste 0 1006.9 -- 74
2020-11-04 12:00:00 14 5 Nordeste 11 Nordeste 0 1007.6 -- 82
2020-11-04 11:00:00 12.4 8 Nordeste 11 Nordeste 0 1007.8 0.7 85
2020-11-04 10:00:00 11.9 9 Norte 17 Norte 0 1007.9 -- 83
2020-11-04 09:00:00 10.8 14 Norte 22 Nordeste 0 1007.4 -- 81
2020-11-04 08:00:00 10.4 12 Norte 21 Nordeste 0 1007.1 -- 86
2020-11-04 07:00:00 10.5 13 Norte 21 Nordeste 0 1006.7 -- 88
2020-11-04 06:00:00 10.8 6 Norte 15 Nordeste 0 1007.1 -- 89
2020-11-04 05:00:00 10.8 10 Nordeste 17 Nordeste 0 1007.4 -- 89
2020-11-04 04:00:00 10.9 9 Norte 26 Nordeste 0 1007.6 -- 88
2020-11-04 03:00:00 11.1 16 Nordeste 24 Nordeste 0 1007.8 -- 90
2020-11-04 02:00:00 11.6 11 Norte 15 Norte 0.1 1008.1 -- 92
2020-11-04 01:00:00 11.9 5 Nordeste 11 Oeste 1.2 1008.3 -- 94
2020-11-04 00:00:00 12.2 5 Noroeste 13 Nordeste 0 1009 -- 86
2020-11-03 23:00:00 12 11 Nordeste 15 Nordeste 0 1009.4 -- 88
2020-11-03 22:00:00 12.6 11 Norte 15 Norte 0 1009.7 -- 80
2020-11-03 21:00:00 12.6 12 Nordeste 21 Nordeste 0 1010 -- 84
2020-11-03 20:00:00 12.8 13 Norte 32 Nordeste 0 1009.9 -- 87
2020-11-03 19:00:00 14 17 Nordeste 26 Nordeste 0 1009.8 -- 78
2020-11-03 18:00:00 14.7 15 Nordeste 26 Nordeste 0 1009.3 -- 80
2020-11-03 17:00:00 16 17 Nordeste 24 Nordeste 0 1008.7 -- 69
2020-11-03 16:00:00 17.1 14 Nordeste 24 Norte 0 1008.7 -- 69
2020-11-03 15:00:00 18.6 9 Sudoeste 21 Sur 0 1008.3 -- 72
2020-11-03 14:00:00 18.9 12 Sudoeste 18 Sudoeste 0 1008.6 -- 76
2020-11-03 13:00:00 19.6 12 Sur 18 Sur 0 1009 -- 72
2020-11-03 12:00:00 19.7 11 Sudeste 18 Sudeste 0.2 1009.4 -- 70
2020-11-03 11:00:00 18.2 4 Sudeste 9 Nordeste 0 1009.4 -- 78
2020-11-03 10:00:00 17.5 5 Nordeste 8 Nordeste 0 1009.3 -- 86
2020-11-03 09:00:00 14.8 3 Nordeste 5 Nordeste 0 1009.1 -- 98
2020-11-03 08:00:00 13.9 0 Calma 8 Norte 0 1008.5 -- 98
2020-11-03 07:00:00 12.7 5 Norte 8 Norte 0 1008 -- 98
2020-11-03 06:00:00 11.9 0 Calma 5 Nordeste 0 1007.8 -- 97
2020-11-03 05:00:00 12.7 2 Nordeste 8 Norte 0 1007.8 -- 95
2020-11-03 04:00:00 14.4 4 Norte 5 Noroeste 0 1007.7 -- 95
2020-11-03 03:00:00 15.2 4 Nordeste 8 Nordeste 0 1007.9 -- 94
2020-11-03 02:00:00 15.3 5 Norte 11 Norte 0 1007.8 -- 94
2020-11-03 01:00:00 15.2 6 Norte 11 Norte 0 1007.9 -- 96
2020-11-03 00:00:00 15.1 7 Norte 11 Norte 0 1007.9 -- 97
2020-11-02 23:00:00 15 10 Norte 21 Nordeste 0 1008.1 -- 97
2020-11-02 22:00:00 15.2 15 Norte 22 Norte 0 1008 -- 96
2020-11-02 21:00:00 16.1 13 Norte 21 Norte 0 1007.4 -- 89
2020-11-02 20:00:00 16.6 10 Norte 15 Norte 0 1006.8 -- 87
2020-11-02 19:00:00 17.1 10 Nordeste 15 Este 0 1006.2 -- 84
2020-11-02 18:00:00 17.7 11 Nordeste 17 Nordeste 0 1005.7 -- 81
2020-11-02 17:00:00 19.1 10 Este 26 Nordeste 0 1005.2 -- 79
2020-11-02 16:00:00 20.2 14 Norte 18 Norte 0 1004.9 -- 71
2020-11-02 15:00:00 21.2 10 Norte 15 Norte 0 1004.8 -- 63
2020-11-02 14:00:00 20.9 5 Este 13 Norte 0 1005.1 -- 64
2020-11-02 13:00:00 19.1 6 Nordeste 17 Nordeste 0 1005.7 -- 71
2020-11-02 12:00:00 17.7 12 Norte 18 Nordeste 0 1006.3 -- 79
2020-11-02 11:00:00 15.4 12 Norte 22 Nordeste 0 1006.6 -- 91
2020-11-02 10:00:00 13.5 20 Norte 28 Norte 0 1006.4 -- 99
2020-11-02 09:00:00 12.1 18 Nordeste 30 Nordeste 0 1005.7 -- 100
2020-11-02 08:00:00 11.4 19 Nordeste 26 Norte 0 1005.1 -- 100
2020-11-02 07:00:00 12.4 10 Nordeste 13 Norte 0 1004.6 -- 99
2020-11-02 06:00:00 12.3 3 Este 5 Nordeste 0 1004.6 -- 99
2020-11-02 05:00:00 13 0 Calma 5 Sudeste 0 1004.5 -- 99
2020-11-02 04:00:00 13 6 Sur 9 Sur 0 1004.6 -- 99
2020-11-02 03:00:00 12.5 0 Calma 9 Oeste 0 1005.2 -- 99
2020-11-02 02:00:00 12.4 7 Oeste 9 Sudoeste 0 1005.6 -- 99
2020-11-02 01:00:00 12.7 5 Oeste 8 Sudoeste 0 1005.9 -- 99
2020-11-02 00:00:00 13.2 3 Oeste 8 Sudoeste 0 1006.4 -- 98
2020-11-01 23:00:00 13.9 6 Sudoeste 11 Sudoeste 0 1006.8 -- 98
2020-11-01 22:00:00 14.8 5 Sur 8 Sudoeste 0 1006.8 -- 97
2020-11-01 21:00:00 15.5 0 Calma 5 Oeste 0 1006.7 -- 96
2020-11-01 20:00:00 14.8 4 Sudoeste 8 Sudoeste 0 1006.8 -- 94
2020-11-01 19:00:00 15.6 0 Calma 9 Sur 0 1006.8 -- 90
2020-11-01 18:00:00 17 6 Sur 13 Sur 0 1006.3 -- 85
2020-11-01 17:00:00 20.5 5 Este 9 Nordeste 0 1006 -- 65
2020-11-01 16:00:00 21.6 6 Nordeste 11 Norte 0 1006.1 -- 61
2020-11-01 15:00:00 21.3 5 Norte 18 Norte 0 1006.3 -- 61
2020-11-01 14:00:00 21.8 9 Nordeste 17 Nordeste 0 1006.5 -- 60
2020-11-01 13:00:00 21.2 6 Sur 17 Sur 0 1006.4 -- 63
2020-11-01 12:00:00 19.8 4 Este 9 Este 0 1007.4 -- 69
2020-11-01 11:00:00 18 4 Sudeste 9 Sur 0 1007.8 -- 78
2020-11-01 10:00:00 13.7 7 Nordeste 9 Nordeste 0 1007.7 -- 93
2020-11-01 09:00:00 11.8 3 Noroeste 8 Noroeste 0 1007.1 -- 97
2020-11-01 08:00:00 9.8 0 Calma 8 Sudeste 0 1006.8 -- 97
2020-11-01 07:00:00 9.3 2 Oeste 11 Oeste 0 1006.5 -- 96
2020-11-01 06:00:00 10.1 4 Sudoeste 8 Sudoeste 0 1006.7 -- 96
2020-11-01 05:00:00 11.2 4 Oeste 8 Oeste 0 1006.7 -- 94
2020-11-01 04:00:00 13.1 0 Calma 5 Norte 0 1006.9 -- 93
2020-11-01 03:00:00 13.6 4 Sur 5 Sur 0 1007.1 -- 92
2020-11-01 02:00:00 13.9 3 Oeste 13 Oeste 0 1007.4 -- 93
2020-11-01 01:00:00 13.6 3 Oeste 9 Oeste 0 1007.9 -- 92
2020-11-01 00:00:00 13.4 9 Nordeste 11 Nordeste 0 1008.4 -- 93
2020-10-31 23:00:00 13.7 5 Sudoeste 9 Oeste 0 1008.1 -- 92
2020-10-31 22:00:00 13.5 5 Norte 11 Norte 0 1008.4 -- 93
2020-10-31 21:00:00 13.4 3 Nordeste 15 Norte 0 1008.2 -- 93
2020-10-31 20:00:00 13.7 11 Norte 21 Norte 0 1007.9 -- 92
2020-10-31 19:00:00 15.7 5 Nordeste 11 Nordeste 0 1007.3 -- 86
2020-10-31 18:00:00 15.6 9 Nordeste 17 Nordeste 0 1006.6 -- 87
2020-10-31 17:00:00 19.2 9 Nordeste 17 Este 0 1006.5 -- 74
2020-10-31 16:00:00 20.1 14 Nordeste 22 Nordeste 0 1006.1 -- 69
2020-10-31 15:00:00 20.6 17 Nordeste 22 Nordeste 0 1006 -- 63
2020-10-31 14:00:00 22.6 6 Sudeste 13 Sudeste 0 1006.2 -- 49
2020-10-31 13:00:00 21.1 4 Nordeste 11 Sur 0 1006.9 -- 50
2020-10-31 12:00:00 18.6 6 Nordeste 9 Nordeste 0 1007.7 -- 60
2020-10-31 11:00:00 16.4 4 Nordeste 9 Norte 0 1008.1 -- 70
2020-10-31 10:00:00 13.4 5 Nordeste 8 Nordeste 0 1008.2 -- 84
2020-10-31 09:00:00 10.3 0 Calma 4 Oeste 0 1008.1 -- 94
2020-10-31 08:00:00 5.7 0 Calma 4 Sur 0 1008 -- 98
2020-10-31 07:00:00 5.5 3 Noroeste 4 Noroeste 0 1007.5 -- 98
2020-10-31 06:00:00 6 0 Calma 5 Nordeste 0 1007.6 -- 98
2020-10-31 05:00:00 5.2 0 Calma 5 Sudoeste 0 1007.5 -- 98
2020-10-31 04:00:00 7.1 2 Sur 4 Sur 0 1007.4 -- 98
2020-10-31 03:00:00 7.3 0 Calma 5 Oeste 0 1007.9 -- 98
2020-10-31 02:00:00 7.7 0 Calma 5 Nordeste 0 1008.1 -- 98
2020-10-31 01:00:00 8.3 0 Calma -- -- 0 1008.5 -- 96
2020-10-31 00:00:00 9.4 0 Calma -- -- -- 1008.8 -- 96
2020-10-30 23:00:00 9.9 0 Calma 4 Nordeste 0 1008.7 -- 96
2020-10-30 22:00:00 10.5 0 Calma 8 Nordeste 0 1008.6 -- 94
2020-10-30 21:00:00 11.8 4 Oeste 5 Sudoeste 0 1008.3 -- 90
2020-10-30 20:00:00 13.3 0 Calma 4 Sur 0 1008.2 -- 86
2020-10-30 19:00:00 14.9 2 Sur 15 Sur 0 1008.2 -- 80
2020-10-30 18:00:00 16.9 12 Sur 17 Sur 0 1007.8 -- 76
2020-10-30 17:00:00 21.5 13 Sur 17 Sur 0 1007.5 -- 63
2020-10-30 16:00:00 24.5 11 Sur 15 Sur 0 1007.5 -- 47
2020-10-30 15:00:00 24.9 6 Sur 11 Sur 0 1007.7 -- 40
2020-10-30 14:00:00 23.9 7 Sur 13 Sur 0 1008.2 -- 45
2020-10-30 13:00:00 22.6 4 Sur 11 Sur 0 1008.7 -- 50
2020-10-30 12:00:00 21.3 4 Sur 11 Sur 0 1009.5 -- 59
2020-10-30 11:00:00 18.6 4 Nordeste 13 Norte 0 1009.9 -- 68
2020-10-30 10:00:00 15.8 0 Calma 4 Sudeste 0 1010.1 -- 80
2020-10-30 09:00:00 11.6 0 Calma 5 Nordeste 0 1009.8 -- 91
2020-10-30 08:00:00 8.3 3 Sur 9 Norte 0 1009.3 -- 98
2020-10-30 07:00:00 7 0 Calma 5 Norte 0 1009.2 -- 98
2020-10-30 06:00:00 6.9 0 Calma 5 Norte 0 1009.1 -- 97
2020-10-30 05:00:00 7.2 0 Calma 8 Oeste 0 1008.9 -- 97
2020-10-30 04:00:00 8 3 Sudoeste 8 Nordeste 0 1009 -- 97
2020-10-30 03:00:00 8.7 2 Nordeste 8 Oeste 0 1009.2 -- 97
2020-10-30 02:00:00 9.7 0 Calma 5 Nordeste 0 1009.6 -- 97
2020-10-30 01:00:00 10.1 0 Calma 5 Noroeste 0 1010.1 -- 96
2020-10-30 00:00:00 10.2 0 Calma 4 Nordeste 0 1010.2 -- 96
2020-10-29 23:00:00 11.5 2 Noroeste 5 Este 0 1010.2 -- 95
2020-10-29 22:00:00 12.1 3 Este 8 Nordeste 0 1010 -- 95
2020-10-29 21:00:00 13.1 0 Calma 8 Nordeste 0 1009.9 -- 93
2020-10-29 20:00:00 14.3 3 Norte 5 Oeste 0 1009.8 -- 93
2020-10-29 19:00:00 15.1 2 Este 8 Este 0 1009.7 -- 88
2020-10-29 18:00:00 17.1 7 Sur 17 Sur 0 1009.1 -- 83
2020-10-29 17:00:00 20 9 Sur 13 Sur 0 1008.7 -- 68
2020-10-29 16:00:00 21.3 6 Sur 18 Sur 0 1008.6 -- 60
2020-10-29 15:00:00 21.2 12 Sur 18 Sur 0 1008.6 -- 62
2020-10-29 14:00:00 19.7 14 Sur 22 Sur 0 1008.8 -- 67
2020-10-29 13:00:00 19.6 14 Sur 24 Sur 0 1009.5 -- 69
2020-10-29 12:00:00 19.2 14 Sur 21 Sur 0 1010.4 -- 71
2020-10-29 11:00:00 15.1 7 Sur 9 Sur 0 1010.7 -- 83
2020-10-29 10:00:00 13 0 Calma 8 Sur 0 1010.6 -- 88
2020-10-29 09:00:00 11.2 3 Sudoeste 5 Sur 0 1010.1 -- 93
2020-10-29 08:00:00 10 0 Calma 4 Sur 0 1009.8 -- 94
2020-10-29 07:00:00 9.6 0 Calma 5 Sur 0 1009.1 -- 95
2020-10-29 06:00:00 9.2 3 Sur 5 Sur 0 1009 -- 96
2020-10-29 05:00:00 -- -- -- -- -- -- -- -- --
2020-10-29 04:00:00 8.7 -- -- -- -- -- 1008.2 -- 96
2020-10-29 03:00:00 -- -- -- -- -- -- -- -- --
2020-10-29 02:00:00 9.2 0 Calma 5 Noroeste 0 1008.4 -- 96
2020-10-29 01:00:00 8.7 3 Nordeste 9 Noroeste 0 1008.3 -- 96
2020-10-29 00:00:00 8.5 4 Nordeste 5 Norte 0 1007.9 -- 94
2020-10-28 23:00:00 9.2 0 Calma 5 Nordeste 0 1007.1 -- 92
2020-10-28 22:00:00 10 0 Calma 4 Norte 0 1007.4 -- 90
2020-10-28 21:00:00 10.9 0 Calma 5 Nordeste 0 1007.2 -- 85
2020-10-28 20:00:00 12.4 4 Noroeste 8 Oeste 0 1006.5 -- 82
2020-10-28 19:00:00 14.2 0 Calma 8 Sudeste 0 1005.9 -- 77
2020-10-28 18:00:00 15.8 4 Este 15 Sudeste 0 1004.8 -- 70
2020-10-28 17:00:00 18.9 10 Sudeste 15 Este 0 1004.1 -- 58
2020-10-28 16:00:00 20.7 13 Sur 18 Sur 0 1003.3 -- 54
2020-10-28 15:00:00 22 8 Sur 21 Sudoeste 0 1003.1 -- 46
2020-10-28 14:00:00 21.6 3 Este 11 Sudeste 0 1003.2 -- 42
2020-10-28 13:00:00 21.5 5 Sur 11 Sur 0 1003.4 -- 40
2020-10-28 12:00:00 20.8 2 Sudeste 8 Nordeste 0 1003.9 -- 44
2020-10-28 11:00:00 17.5 3 Este 9 Nordeste 0 1003.9 -- 64
2020-10-28 10:00:00 14.2 3 Sur 11 Sur 0 1003.9 -- 74
2020-10-28 09:00:00 11.1 4 Sudoeste 8 Sudoeste 0 1003.8 -- 86
2020-10-28 08:00:00 7.9 0 Calma 5 Nordeste 0 1002.9 -- 96
2020-10-28 07:00:00 7 0 Calma 8 Nordeste 0 1002.2 -- 96
2020-10-28 06:00:00 6.8 7 Nordeste 9 Nordeste 0 1002 -- 97
2020-10-28 05:00:00 7.1 3 Sur 5 Sur 0 1001.3 -- 97
2020-10-28 04:00:00 6.5 0 Calma 8 Nordeste 0 1001.2 -- 97
2020-10-28 03:00:00 6.6 2 Nordeste 9 Nordeste 0 1001.2 -- 96
2020-10-28 02:00:00 7.8 7 Oeste 9 Oeste 0 1001.1 -- 95
2020-10-28 01:00:00 8.1 5 Oeste 9 Oeste 0 1001.1 -- 95
2020-10-28 00:00:00 8.2 5 Norte 8 Norte 0 1001.1 -- 96